createdAt,value
2023-08-29T00:03:48.512Z,4.68
2023-08-29T00:06:15.733Z,6.28
2023-08-29T00:11:09.013Z,5.53
2023-08-29T00:16:04.017Z,7.53
2023-08-29T00:18:31.469Z,6.20
2023-08-29T00:20:59.228Z,6.35
2023-08-29T00:25:52.721Z,6.40
2023-08-29T00:28:19.871Z,7.78
2023-08-29T00:30:46.504Z,8.07
2023-08-29T00:33:13.842Z,6.75
2023-08-29T00:35:41.036Z,6.75
2023-08-29T00:38:10.524Z,8.25
2023-08-29T00:40:37.181Z,9.00
2023-08-29T00:43:04.408Z,5.30
2023-08-29T00:45:35.443Z,5.18
2023-08-29T00:48:03.028Z,8.23
2023-08-29T00:50:31.387Z,8.48
2023-08-29T00:53:02.048Z,6.72
2023-08-29T00:55:30.264Z,6.65
2023-08-29T00:57:57.709Z,6.22
2023-08-29T01:00:25.982Z,7.05
2023-08-29T01:02:52.640Z,7.60
2023-08-29T01:07:46.276Z,5.50
2023-08-29T01:10:13.176Z,7.72
2023-08-29T01:15:26.373Z,5.05
2023-08-29T01:17:57.655Z,7.95
2023-08-29T01:20:25.387Z,5.95
2023-08-29T01:23:20.414Z,7.20
2023-08-29T01:25:52.863Z,5.75
2023-08-29T01:28:20.882Z,6.45
2023-08-29T01:30:47.986Z,7.35
2023-08-29T01:33:14.934Z,6.18
2023-08-29T01:35:48.394Z,6.93
2023-08-29T01:38:18.549Z,7.75
2023-08-29T01:40:46.057Z,8.27
2023-08-29T01:43:12.856Z,8.32
2023-08-29T01:48:07.700Z,7.85
2023-08-29T01:50:35.943Z,6.25
2023-08-29T01:53:03.766Z,5.35
2023-08-29T01:55:32.614Z,4.88
2023-08-29T01:58:00.710Z,5.88
2023-08-29T02:00:28.629Z,6.50
2023-08-29T02:02:55.742Z,5.55
2023-08-29T02:05:22.910Z,4.93
2023-08-29T02:07:51.015Z,5.72
2023-08-29T02:10:19.810Z,6.15
2023-08-29T02:12:46.965Z,6.85
2023-08-29T02:15:13.647Z,6.47
2023-08-29T02:20:08.478Z,7.10
2023-08-29T02:22:36.244Z,4.95
2023-08-29T02:25:05.811Z,6.65
2023-08-29T02:27:36.189Z,6.40
2023-08-29T02:30:05.735Z,6.00
2023-08-29T02:32:35.386Z,5.35
2023-08-29T02:35:04.759Z,5.88
2023-08-29T02:37:34.059Z,6.35
2023-08-29T02:40:00.711Z,7.40
2023-08-29T02:42:27.646Z,7.05
2023-08-29T02:47:20.975Z,8.18
2023-08-29T02:49:47.847Z,6.35
2023-08-29T02:52:14.498Z,9.38
2023-08-29T02:54:41.485Z,9.50
2023-08-29T02:59:34.733Z,6.13
2023-08-29T03:02:04.064Z,8.00
2023-08-29T03:04:31.538Z,7.75
2023-08-29T03:06:58.221Z,7.63
2023-08-29T03:09:25.682Z,8.63
2023-08-29T03:11:52.346Z,6.68
2023-08-29T03:14:19.225Z,8.82
2023-08-29T03:16:45.938Z,9.68
2023-08-29T03:19:12.630Z,8.18
2023-08-29T03:21:39.174Z,7.20
2023-08-29T03:24:10.267Z,8.95
2023-08-29T03:26:36.969Z,7.80
2023-08-29T03:31:30.747Z,7.15
2023-08-29T03:33:57.361Z,7.70
2023-08-29T03:36:23.929Z,9.25
2023-08-29T03:38:50.988Z,12.07
2023-08-29T03:41:17.811Z,9.95
2023-08-29T03:43:44.738Z,11.48
2023-08-29T03:46:11.458Z,10.15
2023-08-29T03:48:38.787Z,11.05
2023-08-29T03:51:08.661Z,9.07
2023-08-29T03:53:37.035Z,11.95
2023-08-29T03:56:04.989Z,10.98
2023-08-29T03:58:32.202Z,12.10
2023-08-29T04:00:59.942Z,8.85
2023-08-29T04:03:27.346Z,11.32
2023-08-29T04:05:54.236Z,11.23
2023-08-29T04:08:21.154Z,13.95
2023-08-29T04:14:38.886Z,10.55
2023-08-29T04:17:05.990Z,10.02
2023-08-29T04:21:59.377Z,9.07
2023-08-29T04:24:25.841Z,10.80
2023-08-29T04:26:53.004Z,12.57
2023-08-29T04:29:19.484Z,11.35
2023-08-29T04:34:13.205Z,8.57
2023-08-29T04:36:39.818Z,9.65
2023-08-29T04:41:34.003Z,10.90
2023-08-29T04:44:01.213Z,10.55
2023-08-29T04:46:28.122Z,8.90
2023-08-29T04:48:54.690Z,11.98
2023-08-29T04:53:48.255Z,12.13
2023-08-29T04:56:14.957Z,14.35
2023-08-29T05:01:09.922Z,14.05
2023-08-29T05:03:38.217Z,11.43
2023-08-29T05:06:05.019Z,12.15
2023-08-29T05:11:03.641Z,16.65
2023-08-29T05:13:30.666Z,12.80
2023-08-29T05:15:57.188Z,11.98
2023-08-29T05:20:50.581Z,15.80
2023-08-29T05:23:17.572Z,14.40
2023-08-29T05:25:44.304Z,12.52
2023-08-29T05:28:11.612Z,10.35
2023-08-29T05:30:38.268Z,12.10
2023-08-29T05:33:05.427Z,10.50
2023-08-29T05:35:32.159Z,7.50
2023-08-29T05:40:25.266Z,8.68
2023-08-29T05:42:52.304Z,9.75
2023-08-29T05:45:19.129Z,11.10
2023-08-29T05:47:45.719Z,11.10
2023-08-29T05:50:12.741Z,12.60
2023-08-29T05:52:39.622Z,16.85
2023-08-29T05:55:07.437Z,14.15
2023-08-29T05:57:34.539Z,15.35
2023-08-29T06:00:01.237Z,13.75
2023-08-29T06:02:28.829Z,13.93
2023-08-29T06:04:55.769Z,13.43
2023-08-29T06:07:22.392Z,17.10
2023-08-29T06:09:49.318Z,13.82
2023-08-29T06:12:19.869Z,14.13
2023-08-29T06:14:46.483Z,17.35
2023-08-29T06:17:13.194Z,12.68
2023-08-29T06:19:40.348Z,15.27
2023-08-29T06:22:07.695Z,14.63
2023-08-29T06:24:35.036Z,13.27
2023-08-29T06:29:28.336Z,14.80
2023-08-29T06:31:54.995Z,13.57
2023-08-29T06:36:48.119Z,13.23
2023-08-29T06:39:15.132Z,18.08
2023-08-29T06:44:08.560Z,16.13
2023-08-29T06:46:35.233Z,16.45
2023-08-29T06:49:02.168Z,16.55
2023-08-29T06:51:29.644Z,14.57
2023-08-29T06:53:56.452Z,18.60
2023-08-29T06:56:22.968Z,17.95
2023-08-29T06:58:49.501Z,17.42
2023-08-29T07:01:16.869Z,16.95
2023-08-29T07:03:43.573Z,15.13
2023-08-29T07:06:11.081Z,18.30
2023-08-29T07:08:39.108Z,17.50
2023-08-29T07:11:05.759Z,16.02
2023-08-29T07:13:32.220Z,16.92
2023-08-29T07:15:58.881Z,14.02
2023-08-29T07:18:25.686Z,17.75
2023-08-29T07:20:54.003Z,17.13
2023-08-29T07:23:20.551Z,17.85
2023-08-29T07:25:47.640Z,18.52
2023-08-29T07:28:15.087Z,17.70
2023-08-29T07:30:51.159Z,20.08
2023-08-29T07:33:19.192Z,17.98
2023-08-29T07:35:47.970Z,17.85
2023-08-29T07:38:15.585Z,16.42
2023-08-29T07:40:45.181Z,19.80
2023-08-29T07:43:11.805Z,25.75
2023-08-29T07:45:38.697Z,22.50
2023-08-29T07:48:07.094Z,22.25
2023-08-29T07:50:34.608Z,25.40
2023-08-29T07:53:01.436Z,27.35
2023-08-29T07:55:28.102Z,25.95
2023-08-29T07:57:54.732Z,33.25
2023-08-29T08:00:22.498Z,36.88
2023-08-29T08:02:50.274Z,41.20
2023-08-29T08:05:17.605Z,37.85
2023-08-29T08:07:45.874Z,36.20
2023-08-29T08:10:13.971Z,38.70
2023-08-29T08:12:41.707Z,39.05
2023-08-29T08:15:09.702Z,38.13
2023-08-29T08:17:37.730Z,38.72
2023-08-29T08:20:11.671Z,41.13
2023-08-29T08:22:39.708Z,37.97
2023-08-29T08:25:08.686Z,39.88
2023-08-29T08:27:36.010Z,35.72
2023-08-29T08:30:06.579Z,39.45
2023-08-29T08:32:33.156Z,35.95
2023-08-29T08:35:00.945Z,39.47
2023-08-29T08:37:27.479Z,41.40
2023-08-29T08:39:54.612Z,43.13
2023-08-29T08:42:21.475Z,44.42
2023-08-29T08:44:49.562Z,48.15
2023-08-29T08:49:45.067Z,39.88
2023-08-29T08:52:12.568Z,45.75
2023-08-29T08:54:39.822Z,42.80
2023-08-29T08:57:07.382Z,40.60
2023-08-29T08:59:34.976Z,38.55
2023-08-29T09:02:02.435Z,34.28
2023-08-29T09:04:29.372Z,40.45
2023-08-29T09:06:59.052Z,39.45
2023-08-29T09:09:25.735Z,33.72
2023-08-29T09:11:54.271Z,36.47
2023-08-29T09:14:22.771Z,32.22
2023-08-29T09:16:55.693Z,34.88
2023-08-29T09:19:23.686Z,34.03
2023-08-29T09:21:51.057Z,35.75
2023-08-29T09:24:35.002Z,34.70
2023-08-29T09:27:11.259Z,38.00
2023-08-29T09:29:38.098Z,35.33
2023-08-29T09:32:15.246Z,36.28
2023-08-29T09:34:42.643Z,34.85
2023-08-29T09:37:12.043Z,32.88
2023-08-29T09:39:39.479Z,35.95
2023-08-29T09:42:08.392Z,37.65
2023-08-29T09:44:40.045Z,32.90
2023-08-29T09:47:09.262Z,33.05
2023-08-29T09:49:47.033Z,26.40
2023-08-29T09:54:49.564Z,27.75
2023-08-29T09:57:22.917Z,29.02
2023-08-29T09:59:52.993Z,29.92
2023-08-29T10:02:21.768Z,29.05
2023-08-29T10:04:55.743Z,31.02
2023-08-29T10:07:28.127Z,30.38
2023-08-29T10:09:54.974Z,31.08
2023-08-29T10:12:22.607Z,31.60
2023-08-29T10:14:49.718Z,35.05
2023-08-29T10:17:29.862Z,30.70
2023-08-29T10:20:00.247Z,34.53
2023-08-29T10:22:32.727Z,33.50
2023-08-29T10:25:02.598Z,31.23
2023-08-29T10:27:29.440Z,33.20
2023-08-29T10:29:56.426Z,37.92
2023-08-29T10:32:27.910Z,32.55
2023-08-29T10:34:54.898Z,33.63
2023-08-29T10:37:22.648Z,33.90
2023-08-29T10:39:52.121Z,31.50
2023-08-29T10:42:19.189Z,34.20
2023-08-29T10:44:47.947Z,32.80
2023-08-29T10:47:28.714Z,33.10
2023-08-29T10:50:03.493Z,31.25
2023-08-29T10:52:42.778Z,31.55
2023-08-29T10:57:47.225Z,27.50
2023-08-29T11:00:19.887Z,28.52
2023-08-29T11:02:46.496Z,29.73
2023-08-29T11:05:15.536Z,28.70
2023-08-29T11:07:43.692Z,29.48
2023-08-29T11:10:23.340Z,28.58
2023-08-29T11:13:10.605Z,30.17
2023-08-29T11:15:52.574Z,30.60
2023-08-29T11:18:33.992Z,26.83
2023-08-29T11:21:08.911Z,32.05
2023-08-29T11:23:39.942Z,27.20
2023-08-29T11:26:09.307Z,27.65
2023-08-29T11:28:45.794Z,26.73
2023-08-29T11:31:13.404Z,27.08
2023-08-29T11:33:40.104Z,30.48
2023-08-29T11:36:08.308Z,31.42
2023-08-29T11:38:35.647Z,32.50
2023-08-29T11:41:18.053Z,28.35
2023-08-29T11:44:17.167Z,29.27
2023-08-29T11:46:40.659Z,28.63
2023-08-29T11:49:17.304Z,26.77
2023-08-29T11:51:44.344Z,28.45
2023-08-29T11:54:40.765Z,26.95
2023-08-29T11:57:08.896Z,29.17
2023-08-29T11:59:36.125Z,32.90
2023-08-29T12:02:02.692Z,26.02
2023-08-29T12:04:29.664Z,27.33
2023-08-29T12:07:10.101Z,27.83
2023-08-29T12:09:39.032Z,28.83
2023-08-29T12:12:08.544Z,28.17
2023-08-29T12:14:51.166Z,23.30
2023-08-29T12:17:19.153Z,27.08
2023-08-29T12:19:47.193Z,22.45
2023-08-29T12:22:14.953Z,26.05
2023-08-29T12:24:42.090Z,24.10
2023-08-29T12:27:09.160Z,22.10
2023-08-29T12:29:35.735Z,21.58
2023-08-29T12:32:02.610Z,26.75
2023-08-29T12:34:29.274Z,25.75
2023-08-29T12:36:55.985Z,23.48
2023-08-29T12:39:22.569Z,22.10
2023-08-29T12:41:49.496Z,22.05
2023-08-29T12:44:16.145Z,21.23
2023-08-29T12:46:42.800Z,19.95
2023-08-29T12:49:09.689Z,22.02
2023-08-29T12:51:36.371Z,19.58
2023-08-29T12:54:03.736Z,17.20
2023-08-29T12:56:30.536Z,17.45
2023-08-29T12:58:58.484Z,16.95
2023-08-29T13:01:28.894Z,16.10
2023-08-29T13:03:57.441Z,15.00
2023-08-29T13:06:26.451Z,17.00
2023-08-29T13:08:53.588Z,18.77
2023-08-29T13:11:20.320Z,16.27
2023-08-29T13:13:48.509Z,15.30
2023-08-29T13:16:18.966Z,14.68
2023-08-29T13:18:45.844Z,14.05
2023-08-29T13:21:13.307Z,16.17
2023-08-29T13:23:40.358Z,15.02
2023-08-29T13:26:06.935Z,13.77
2023-08-29T13:28:34.174Z,13.57
2023-08-29T13:31:02.112Z,15.23
2023-08-29T13:33:29.058Z,13.93
2023-08-29T13:35:56.237Z,16.23
2023-08-29T13:38:22.915Z,15.30
2023-08-29T13:40:52.434Z,17.48
2023-08-29T13:43:19.411Z,17.05
2023-08-29T13:45:46.129Z,17.48
2023-08-29T13:48:13.025Z,15.18
2023-08-29T13:50:41.106Z,15.32
2023-08-29T13:53:12.688Z,14.02
2023-08-29T13:55:40.114Z,15.15
2023-08-29T13:58:07.264Z,15.25
2023-08-29T14:00:35.103Z,17.60
2023-08-29T14:03:01.849Z,16.88
2023-08-29T14:05:30.250Z,17.67
2023-08-29T14:07:56.669Z,17.95
2023-08-29T14:10:24.853Z,19.25
2023-08-29T14:12:52.106Z,19.40
2023-08-29T14:15:19.177Z,22.48
2023-08-29T14:17:47.047Z,21.60
2023-08-29T14:20:13.909Z,23.17
2023-08-29T14:22:40.508Z,24.42
2023-08-29T14:25:07.345Z,23.95
2023-08-29T14:27:34.396Z,27.38
2023-08-29T14:30:01.600Z,20.30
2023-08-29T14:32:28.493Z,21.65
2023-08-29T14:34:55.172Z,22.35
2023-08-29T14:37:21.667Z,21.42
2023-08-29T14:39:50.406Z,22.45
2023-08-29T14:42:17.203Z,26.25
2023-08-29T14:44:43.842Z,27.77
2023-08-29T14:47:10.638Z,20.00
2023-08-29T14:49:37.237Z,24.75
2023-08-29T14:52:04.395Z,19.02
2023-08-29T14:54:31.563Z,24.55
2023-08-29T14:56:59.515Z,21.05
2023-08-29T14:59:27.856Z,23.80
2023-08-29T15:01:55.943Z,22.55
2023-08-29T15:04:23.272Z,21.67
2023-08-29T15:06:50.488Z,19.92
2023-08-29T15:09:17.610Z,20.08
2023-08-29T15:11:44.912Z,20.95
2023-08-29T15:14:11.465Z,19.63
2023-08-29T15:16:38.057Z,20.15
2023-08-29T15:19:05.047Z,18.20
2023-08-29T15:21:31.587Z,17.60
2023-08-29T15:23:58.292Z,19.75
2023-08-29T15:26:24.976Z,17.27
2023-08-29T15:28:52.798Z,20.15
2023-08-29T15:31:19.741Z,18.35
2023-08-29T15:33:47.549Z,16.38
2023-08-29T15:36:14.036Z,14.60
2023-08-29T15:38:41.207Z,13.07
2023-08-29T15:41:07.992Z,13.35
2023-08-29T15:43:34.596Z,11.73
2023-08-29T15:46:06.481Z,14.13
2023-08-29T15:48:33.179Z,13.43
2023-08-29T15:51:00.089Z,13.65
2023-08-29T15:53:27.236Z,14.10
2023-08-29T15:56:04.086Z,13.27
2023-08-29T15:58:30.875Z,14.88
2023-08-29T16:00:57.788Z,14.07
2023-08-29T16:03:24.566Z,14.75
2023-08-29T16:05:52.334Z,13.60
2023-08-29T16:08:19.610Z,12.43
2023-08-29T16:10:47.256Z,13.52
2023-08-29T16:13:13.711Z,14.48
2023-08-29T16:15:40.305Z,12.95
2023-08-29T16:18:07.371Z,12.82
2023-08-29T16:20:35.561Z,12.48
2023-08-29T16:23:02.559Z,12.20
2023-08-29T16:25:29.221Z,12.10
2023-08-29T16:27:55.884Z,11.95
2023-08-29T16:30:22.869Z,12.15
2023-08-29T16:32:50.126Z,11.88
2023-08-29T16:35:16.828Z,10.68
2023-08-29T16:37:44.031Z,11.15
2023-08-29T16:40:11.917Z,10.75
2023-08-29T16:42:38.923Z,9.68
2023-08-29T16:45:07.172Z,9.70
2023-08-29T16:47:34.872Z,9.45
2023-08-29T16:50:01.529Z,9.13
2023-08-29T16:52:28.925Z,9.75
2023-08-29T16:54:55.544Z,9.30
2023-08-29T16:57:24.052Z,8.48
2023-08-29T16:59:54.821Z,7.88
2023-08-29T17:02:22.048Z,9.43
2023-08-29T17:04:48.729Z,9.57
2023-08-29T17:07:15.773Z,8.80
2023-08-29T17:09:46.308Z,8.43
2023-08-29T17:12:20.774Z,7.93
2023-08-29T17:14:50.563Z,8.18
2023-08-29T17:17:18.158Z,7.18
2023-08-29T17:19:45.216Z,7.25
2023-08-29T17:22:11.814Z,7.47
2023-08-29T17:24:39.024Z,8.38
2023-08-29T17:27:06.311Z,7.53
2023-08-29T17:29:39.700Z,9.10
2023-08-29T17:32:07.751Z,8.35
2023-08-29T17:34:35.112Z,7.00
2023-08-29T17:37:02.240Z,8.13
2023-08-29T17:39:29.695Z,7.97
2023-08-29T17:41:56.671Z,8.23
2023-08-29T17:44:23.833Z,8.23
2023-08-29T17:46:50.762Z,7.82
2023-08-29T17:49:19.191Z,7.28
2023-08-29T17:51:46.693Z,8.57
2023-08-29T17:54:13.444Z,9.30
2023-08-29T17:56:41.441Z,6.78
2023-08-29T17:59:08.452Z,5.75
2023-08-29T18:01:35.652Z,6.88
2023-08-29T18:04:07.591Z,8.02
2023-08-29T18:06:34.166Z,9.20
2023-08-29T18:09:01.180Z,6.57
2023-08-29T18:11:28.592Z,6.80
2023-08-29T18:13:56.214Z,7.18
2023-08-29T18:16:23.273Z,5.95
2023-08-29T18:18:49.999Z,6.13
2023-08-29T18:21:16.738Z,7.13
2023-08-29T18:23:44.327Z,6.50
2023-08-29T18:26:13.870Z,5.60
2023-08-29T18:28:41.155Z,6.35
2023-08-29T18:31:08.458Z,6.82
2023-08-29T18:33:36.422Z,6.97
2023-08-29T18:36:03.330Z,6.30
2023-08-29T18:38:30.472Z,8.25
2023-08-29T18:40:57.222Z,6.32
2023-08-29T18:43:23.753Z,7.10
2023-08-29T18:45:50.647Z,6.18
2023-08-29T18:48:20.265Z,5.65
2023-08-29T18:50:47.297Z,6.65
2023-08-29T18:53:14.448Z,5.60
2023-08-29T18:55:43.351Z,5.63
2023-08-29T18:58:10.364Z,5.60
2023-08-29T19:00:38.584Z,6.65
2023-08-29T19:03:05.594Z,5.38
2023-08-29T19:05:35.012Z,5.28
2023-08-29T19:08:01.870Z,5.53
2023-08-29T19:10:28.523Z,5.65
2023-08-29T19:15:21.759Z,5.00
2023-08-29T19:17:48.451Z,7.20
2023-08-29T19:20:15.417Z,5.53
2023-08-29T19:22:42.062Z,6.28
2023-08-29T19:25:08.798Z,6.47
2023-08-29T19:27:36.082Z,4.80
2023-08-29T19:32:36.189Z,5.95
2023-08-29T19:35:04.985Z,5.43
2023-08-29T19:37:32.337Z,6.15
2023-08-29T19:39:59.112Z,5.97
2023-08-29T19:42:26.615Z,5.68
2023-08-29T19:47:24.544Z,5.15
2023-08-29T19:49:51.659Z,5.50
2023-08-29T19:52:18.868Z,5.60
2023-08-29T19:54:45.868Z,5.50
2023-08-29T19:57:14.315Z,4.93
2023-08-29T19:59:42.123Z,5.15
2023-08-29T20:02:10.364Z,4.70
2023-08-29T20:04:37.916Z,5.15
2023-08-29T20:07:04.732Z,5.80
2023-08-29T20:09:32.568Z,6.55
2023-08-29T20:11:59.459Z,6.70
2023-08-29T20:14:26.101Z,4.60
2023-08-29T20:16:53.737Z,5.60
2023-08-29T20:19:25.010Z,4.28
2023-08-29T20:21:52.419Z,5.20
2023-08-29T20:24:21.232Z,5.28
2023-08-29T20:26:48.160Z,4.90
2023-08-29T20:29:16.477Z,5.68
2023-08-29T20:31:43.600Z,6.22
2023-08-29T20:34:10.568Z,6.40
2023-08-29T20:36:37.615Z,5.68
2023-08-29T20:39:04.832Z,6.85
2023-08-29T20:41:31.421Z,5.10
2023-08-29T20:43:57.890Z,4.70
2023-08-29T20:46:24.658Z,4.93
2023-08-29T20:48:53.159Z,4.88
2023-08-29T20:51:20.486Z,5.03
2023-08-29T20:53:47.504Z,5.90
2023-08-29T20:56:14.132Z,4.72
2023-08-29T20:58:40.804Z,5.57
2023-08-29T21:01:07.541Z,7.25
2023-08-29T21:03:34.539Z,4.95
2023-08-29T21:06:01.367Z,5.88
2023-08-29T21:08:28.575Z,5.55
2023-08-29T21:10:56.676Z,6.30
2023-08-29T21:13:23.903Z,7.00
2023-08-29T21:15:51.789Z,6.53
2023-08-29T21:18:19.760Z,6.00
2023-08-29T21:20:55.400Z,6.43
2023-08-29T21:23:23.089Z,6.60
2023-08-29T21:25:51.092Z,6.25
2023-08-29T21:28:23.902Z,7.47
2023-08-29T21:30:53.035Z,8.95
2023-08-29T21:33:20.418Z,6.72
2023-08-29T21:35:48.971Z,5.97
2023-08-29T21:38:16.361Z,7.35
2023-08-29T21:40:44.598Z,7.85
2023-08-29T21:43:13.329Z,7.47
2023-08-29T21:45:42.675Z,8.77
2023-08-29T21:48:11.112Z,7.22
2023-08-29T21:50:39.567Z,6.82
2023-08-29T21:53:07.302Z,6.35
2023-08-29T21:55:35.985Z,5.75
2023-08-29T21:58:04.191Z,6.03
2023-08-29T22:00:32.433Z,5.90
2023-08-29T22:03:01.053Z,7.65
2023-08-29T22:05:30.473Z,5.90
2023-08-29T22:07:58.416Z,7.60
2023-08-29T22:10:25.859Z,6.50
2023-08-29T22:12:53.093Z,6.93
2023-08-29T22:17:47.377Z,6.50
2023-08-29T22:22:44.011Z,6.85
2023-08-29T22:25:10.923Z,6.60
2023-08-29T22:27:37.767Z,7.78
2023-08-29T22:32:33.345Z,7.85
2023-08-29T22:35:00.766Z,8.32
2023-08-29T22:37:28.120Z,7.07
2023-08-29T22:39:55.135Z,7.10
2023-08-29T22:44:49.071Z,6.70
2023-08-29T22:47:16.852Z,6.43
2023-08-29T22:49:44.802Z,5.63
2023-08-29T22:52:12.460Z,7.35
2023-08-29T22:54:39.676Z,6.55
2023-08-29T22:57:06.324Z,6.32
2023-08-29T22:59:33.406Z,8.13
2023-08-29T23:02:04.079Z,8.23
2023-08-29T23:04:30.958Z,7.45
2023-08-29T23:07:16.313Z,6.97
2023-08-29T23:09:43.605Z,7.35
2023-08-29T23:12:11.063Z,7.68
2023-08-29T23:14:37.776Z,6.43
2023-08-29T23:17:09.019Z,7.75
2023-08-29T23:19:35.805Z,7.85
2023-08-29T23:22:02.679Z,7.22
2023-08-29T23:24:29.375Z,8.38
2023-08-29T23:26:57.454Z,6.97
2023-08-29T23:29:24.014Z,8.00
2023-08-29T23:31:51.377Z,7.07
2023-08-29T23:34:18.102Z,6.63
2023-08-29T23:39:13.347Z,7.05
2023-08-29T23:41:39.976Z,6.75
2023-08-29T23:44:07.066Z,6.90
2023-08-29T23:46:33.956Z,7.85
2023-08-29T23:49:00.458Z,6.35
2023-08-29T23:51:27.676Z,7.72
2023-08-29T23:53:54.322Z,8.02
2023-08-29T23:56:21.888Z,8.40
2023-08-29T23:58:48.525Z,6.85
